createdAt,value
2022-11-24T00:03:08.967Z,3.53
2022-11-24T00:08:12.031Z,2.78
2022-11-24T00:13:14.105Z,3.65
2022-11-24T00:18:16.140Z,3.10
2022-11-24T00:23:18.550Z,2.67
2022-11-24T00:28:20.591Z,2.70
2022-11-24T00:33:22.613Z,2.80
2022-11-24T00:38:25.127Z,2.25
2022-11-24T00:43:27.136Z,4.28
2022-11-24T00:48:30.821Z,2.83
2022-11-24T00:53:33.748Z,2.70
2022-11-24T00:58:36.141Z,3.00
2022-11-24T01:03:38.471Z,4.82
2022-11-24T01:08:41.249Z,2.55
2022-11-24T01:13:45.428Z,2.55
2022-11-24T01:18:47.963Z,3.60
2022-11-24T01:23:50.458Z,3.87
2022-11-24T01:28:57.161Z,3.83
2022-11-24T01:33:59.166Z,2.85
2022-11-24T01:39:01.592Z,2.87
2022-11-24T01:44:30.381Z,3.95
2022-11-24T01:49:45.269Z,2.65
2022-11-24T01:54:57.469Z,3.25
2022-11-24T02:00:04.918Z,4.15
2022-11-24T02:05:24.286Z,3.20
2022-11-24T02:10:26.376Z,3.15
2022-11-24T02:15:28.926Z,2.80
2022-11-24T02:25:49.048Z,2.30
2022-11-24T02:30:53.221Z,2.80
2022-11-24T02:35:55.295Z,4.45
2022-11-24T02:40:59.125Z,3.33
2022-11-24T02:46:01.257Z,3.10
2022-11-24T02:51:03.528Z,4.43
2022-11-24T02:56:05.849Z,3.45
2022-11-24T03:01:07.988Z,2.30
2022-11-24T03:06:10.135Z,3.97
2022-11-24T03:11:12.176Z,3.25
2022-11-24T03:16:14.256Z,4.40
2022-11-24T03:21:16.426Z,3.97
2022-11-24T03:26:20.628Z,2.62
2022-11-24T03:31:23.478Z,2.70
2022-11-24T03:36:25.891Z,2.90
2022-11-24T03:41:27.940Z,2.12
2022-11-24T03:46:30.071Z,3.58
2022-11-24T03:51:32.296Z,4.25
2022-11-24T03:56:34.605Z,2.50
2022-11-24T04:01:36.752Z,1.80
2022-11-24T04:06:39.712Z,2.92
2022-11-24T04:12:00.280Z,2.00
2022-11-24T04:17:04.103Z,2.20
2022-11-24T04:22:06.160Z,2.45
2022-11-24T04:27:08.285Z,2.28
2022-11-24T04:32:10.349Z,2.62
2022-11-24T04:37:12.536Z,3.40
2022-11-24T04:42:14.652Z,4.62
2022-11-24T04:47:20.566Z,2.72
2022-11-24T04:52:24.644Z,2.73
2022-11-24T04:57:27.467Z,2.65
2022-11-24T05:07:31.645Z,2.70
2022-11-24T05:12:33.910Z,2.70
2022-11-24T05:17:38.573Z,1.95
2022-11-24T05:22:40.712Z,4.00
2022-11-24T05:27:42.871Z,2.58
2022-11-24T05:32:45.070Z,2.85
2022-11-24T05:37:47.676Z,2.72
2022-11-24T05:42:49.744Z,4.22
2022-11-24T05:47:53.012Z,5.93
2022-11-24T05:52:55.555Z,2.80
2022-11-24T05:57:59.247Z,2.92
2022-11-24T06:03:02.440Z,3.55
2022-11-24T06:08:05.081Z,5.15
2022-11-24T06:13:07.776Z,3.67
2022-11-24T06:23:11.958Z,5.20
2022-11-24T06:28:14.144Z,4.22
2022-11-24T06:33:16.171Z,3.10
2022-11-24T06:38:24.116Z,2.85
2022-11-24T06:43:30.595Z,3.70
2022-11-24T06:48:33.105Z,3.55
2022-11-24T06:53:38.143Z,3.45
2022-11-24T06:58:45.917Z,2.90
2022-11-24T07:03:49.089Z,3.03
2022-11-24T07:08:51.419Z,2.90
2022-11-24T07:13:59.496Z,3.62
2022-11-24T07:19:03.049Z,3.80
2022-11-24T07:24:05.566Z,2.75
2022-11-24T07:29:07.685Z,2.28
2022-11-24T07:34:09.810Z,2.83
2022-11-24T07:39:12.021Z,4.07
2022-11-24T07:44:14.048Z,4.22
2022-11-24T07:49:16.107Z,4.05
2022-11-24T07:54:18.158Z,2.67
2022-11-24T07:59:20.641Z,3.83
2022-11-24T08:04:23.107Z,4.20
2022-11-24T08:09:25.163Z,2.00
2022-11-24T08:14:27.157Z,2.30
2022-11-24T08:19:29.590Z,3.12
2022-11-24T08:24:32.008Z,3.30
2022-11-24T08:34:36.876Z,3.15
2022-11-24T08:39:39.029Z,2.03
2022-11-24T08:44:41.124Z,2.83
2022-11-24T08:49:43.151Z,3.20
2022-11-24T08:54:45.273Z,2.67
2022-11-24T08:59:47.295Z,2.40
2022-11-24T09:04:49.461Z,2.07
2022-11-24T09:09:52.150Z,2.15
2022-11-24T09:14:54.153Z,3.45
2022-11-24T09:19:56.248Z,2.37
2022-11-24T09:24:58.583Z,2.80
2022-11-24T09:30:00.667Z,3.08
2022-11-24T09:35:02.765Z,2.87
2022-11-24T09:40:05.377Z,2.45
2022-11-24T09:45:14.982Z,2.10
2022-11-24T09:50:22.460Z,2.40
2022-11-24T09:55:31.509Z,2.30
2022-11-24T10:00:34.247Z,2.67
2022-11-24T10:10:51.103Z,2.80
2022-11-24T10:16:04.373Z,2.63
2022-11-24T10:21:31.140Z,2.00
2022-11-24T10:26:44.146Z,2.57
2022-11-24T10:31:51.120Z,2.60
2022-11-24T10:37:20.591Z,3.07
2022-11-24T10:42:31.663Z,2.70
2022-11-24T10:47:33.707Z,2.30
2022-11-24T10:52:41.792Z,2.80
2022-11-24T10:57:45.072Z,3.27
2022-11-24T11:02:49.238Z,2.80
2022-11-24T11:08:08.658Z,2.40
2022-11-24T11:13:28.556Z,3.50
2022-11-24T11:18:33.032Z,2.70
2022-11-24T11:23:36.910Z,2.73
2022-11-24T11:28:39.014Z,2.22
2022-11-24T11:34:13.904Z,3.03
2022-11-24T11:39:37.862Z,1.77
2022-11-24T11:45:00.830Z,2.83
2022-11-24T11:50:02.987Z,2.30
2022-11-24T11:55:31.801Z,2.83
2022-11-24T12:00:39.675Z,1.98
2022-11-24T12:05:55.650Z,2.20
2022-11-24T12:11:25.117Z,1.83
2022-11-24T12:16:58.009Z,2.25
2022-11-24T12:22:09.414Z,1.80
2022-11-24T12:27:32.575Z,2.33
2022-11-24T12:33:00.135Z,1.73
2022-11-24T12:38:29.474Z,2.78
2022-11-24T12:43:40.324Z,2.10
2022-11-24T12:48:56.731Z,1.98
2022-11-24T12:54:02.951Z,2.60
2022-11-24T12:59:20.454Z,1.83
2022-11-24T13:04:34.404Z,1.98
2022-11-24T13:09:37.145Z,3.03
2022-11-24T13:14:43.109Z,1.62
2022-11-24T13:19:45.885Z,2.37
2022-11-24T13:30:34.247Z,2.08
2022-11-24T13:35:37.318Z,3.20
2022-11-24T13:40:54.133Z,2.72
2022-11-24T13:46:03.802Z,2.07
2022-11-24T13:51:06.219Z,2.37
2022-11-24T13:56:24.862Z,2.55
2022-11-24T14:01:36.623Z,2.72
2022-11-24T14:06:46.043Z,2.58
2022-11-24T14:12:15.387Z,3.22
2022-11-24T14:17:27.562Z,2.58
2022-11-24T14:22:39.069Z,2.27
2022-11-24T14:27:41.167Z,2.97
2022-11-24T14:33:01.155Z,2.33
2022-11-24T14:38:05.127Z,3.37
2022-11-24T14:43:28.186Z,2.15
2022-11-24T14:48:45.704Z,2.55
2022-11-24T14:53:52.184Z,2.63
2022-11-24T14:58:55.774Z,3.47
2022-11-24T15:04:38.894Z,2.22
2022-11-24T15:09:57.696Z,4.10
2022-11-24T15:15:04.629Z,7.87
2022-11-24T15:20:16.912Z,5.77
2022-11-24T15:25:32.356Z,5.20
2022-11-24T15:30:36.657Z,5.00
2022-11-24T15:35:38.761Z,2.77
2022-11-24T15:40:43.533Z,2.53
2022-11-24T15:45:45.625Z,2.87
2022-11-24T15:50:48.335Z,3.72
2022-11-24T15:55:51.508Z,4.12
2022-11-24T16:00:53.950Z,5.65
2022-11-24T16:05:57.535Z,7.75
2022-11-24T16:10:59.532Z,8.57
2022-11-24T16:16:01.646Z,6.93
2022-11-24T16:21:03.731Z,7.07
2022-11-24T16:26:06.627Z,6.35
2022-11-24T16:31:08.745Z,3.95
2022-11-24T16:36:11.148Z,4.28
2022-11-24T16:41:14.141Z,6.62
2022-11-24T16:46:23.151Z,7.27
2022-11-24T16:51:27.767Z,5.55
2022-11-24T16:56:32.367Z,7.35
2022-11-24T17:01:34.742Z,5.97
2022-11-24T17:06:36.859Z,4.85
2022-11-24T17:11:39.173Z,5.20
2022-11-24T17:16:41.507Z,5.72
2022-11-24T17:21:43.755Z,5.93
2022-11-24T17:26:48.970Z,6.03
2022-11-24T17:31:51.417Z,5.70
2022-11-24T17:36:53.553Z,5.15
2022-11-24T17:41:55.606Z,5.72
2022-11-24T17:46:58.937Z,5.68
2022-11-24T17:52:01.245Z,5.57
2022-11-24T17:57:03.447Z,6.85
2022-11-24T18:02:05.500Z,10.32
2022-11-24T18:07:07.793Z,6.40
2022-11-24T18:12:10.026Z,5.65
2022-11-24T18:17:12.518Z,5.70
2022-11-24T18:22:14.574Z,5.62
2022-11-24T18:27:16.691Z,5.28
2022-11-24T18:32:18.753Z,6.25
2022-11-24T18:37:20.840Z,5.90
2022-11-24T18:42:25.441Z,5.00
2022-11-24T18:47:27.546Z,6.00
2022-11-24T18:52:29.693Z,7.35
2022-11-24T18:57:31.788Z,4.93
2022-11-24T19:02:34.629Z,5.00
2022-11-24T19:07:36.810Z,4.17
2022-11-24T19:12:39.007Z,4.80
2022-11-24T19:17:41.504Z,4.45
2022-11-24T19:22:43.531Z,4.60
2022-11-24T19:27:46.364Z,3.80
2022-11-24T19:32:48.451Z,4.43
2022-11-24T19:37:51.078Z,4.18
2022-11-24T19:47:55.099Z,3.70
2022-11-24T19:52:57.127Z,3.53
2022-11-24T19:57:59.153Z,3.75
2022-11-24T20:03:01.274Z,3.58
2022-11-24T20:08:03.537Z,2.50
2022-11-24T20:13:05.560Z,2.25
2022-11-24T20:18:07.695Z,3.12
2022-11-24T20:23:10.285Z,2.50
2022-11-24T20:33:14.714Z,3.15
2022-11-24T20:38:16.797Z,3.15
2022-11-24T20:43:18.812Z,3.85
2022-11-24T20:48:20.834Z,3.17
2022-11-24T20:53:23.413Z,3.60
2022-11-24T20:58:25.469Z,7.68
2022-11-24T21:03:27.574Z,6.00
2022-11-24T21:08:33.748Z,6.32
2022-11-24T21:13:37.155Z,5.33
2022-11-24T21:18:40.207Z,6.00
2022-11-24T21:23:42.789Z,4.73
2022-11-24T21:28:47.399Z,4.35
2022-11-24T21:33:51.779Z,5.00
2022-11-24T21:38:56.028Z,4.13
2022-11-24T21:43:58.188Z,4.05
2022-11-24T21:49:01.530Z,3.87
2022-11-24T21:54:03.785Z,4.10
2022-11-24T21:59:06.234Z,4.82
2022-11-24T22:04:09.483Z,4.82
2022-11-24T22:09:17.560Z,3.40
2022-11-24T22:14:20.341Z,4.90
2022-11-24T22:19:22.886Z,3.80
2022-11-24T22:29:29.687Z,2.20
2022-11-24T22:34:31.720Z,4.05
2022-11-24T22:39:33.802Z,5.03
2022-11-24T22:44:36.149Z,3.87
2022-11-24T22:54:40.385Z,5.50
2022-11-24T22:59:42.527Z,4.07
2022-11-24T23:04:44.965Z,4.15
2022-11-24T23:14:49.660Z,5.00
2022-11-24T23:19:51.865Z,5.28
2022-11-24T23:24:54.336Z,5.03
2022-11-24T23:29:56.429Z,9.13
2022-11-24T23:34:58.454Z,6.60
2022-11-24T23:40:00.456Z,6.47
2022-11-24T23:45:03.313Z,6.93
2022-11-24T23:50:08.448Z,5.90
2022-11-24T23:55:10.480Z,5.25
